createdAt,value
2018-05-04T00:00:58.276Z,86.55
2018-05-04T00:03:29.053Z,82.18
2018-05-04T00:05:59.764Z,89.03
2018-05-04T00:08:31.230Z,92.28
2018-05-04T00:11:04.188Z,87.90
2018-05-04T00:13:36.031Z,96.47
2018-05-04T00:16:07.131Z,93.53
2018-05-04T00:18:38.190Z,89.53
2018-05-04T00:21:09.457Z,87.95
2018-05-04T00:23:40.563Z,89.25
2018-05-04T00:26:11.836Z,88.85
2018-05-04T00:28:42.876Z,91.37
2018-05-04T00:31:14.094Z,91.97
2018-05-04T00:33:45.378Z,95.82
2018-05-04T00:36:16.472Z,103.70
2018-05-04T00:38:47.719Z,95.10
2018-05-04T00:41:18.807Z,91.63
2018-05-04T00:43:50.014Z,97.12
2018-05-04T00:46:21.095Z,85.87
2018-05-04T00:48:52.156Z,76.22
2018-05-04T00:51:23.248Z,78.05
2018-05-04T00:54:03.042Z,82.45
2018-05-04T00:56:35.013Z,77.80
2018-05-04T00:59:06.186Z,77.72
2018-05-04T01:01:37.280Z,76.93
2018-05-04T01:04:08.324Z,81.22
2018-05-04T01:06:39.407Z,79.47
2018-05-04T01:09:10.557Z,78.45
2018-05-04T01:11:41.846Z,80.95
2018-05-04T01:14:12.964Z,86.03
2018-05-04T01:16:44.175Z,81.43
2018-05-04T01:19:15.472Z,82.97
2018-05-04T01:21:46.623Z,88.57
2018-05-04T01:24:17.740Z,85.20
2018-05-04T01:26:48.821Z,84.20
2018-05-04T01:29:19.995Z,73.10
2018-05-04T01:31:51.184Z,82.22
2018-05-04T01:34:22.467Z,78.82
2018-05-04T01:36:53.796Z,74.85
2018-05-04T01:39:24.955Z,75.78
2018-05-04T01:41:56.184Z,72.72
2018-05-04T01:44:27.528Z,80.32
2018-05-04T01:46:58.785Z,80.90
2018-05-04T01:49:30.100Z,78.03
2018-05-04T01:52:01.175Z,80.60
2018-05-04T01:54:32.364Z,81.47
2018-05-04T01:57:03.606Z,81.00
2018-05-04T01:59:35.691Z,76.80
2018-05-04T02:02:06.894Z,77.57
2018-05-04T02:04:37.976Z,81.35
2018-05-04T02:07:09.019Z,85.85
2018-05-04T02:09:40.068Z,79.55
2018-05-04T02:15:33.389Z,88.43
2018-05-04T02:24:38.595Z,74.32
2018-05-04T02:27:09.933Z,76.55
2018-05-04T02:29:40.993Z,74.40
2018-05-04T02:32:12.155Z,72.95
2018-05-04T02:34:43.317Z,78.65
2018-05-04T02:37:16.242Z,76.45
2018-05-04T02:39:47.607Z,79.12
2018-05-04T02:42:18.754Z,79.30
2018-05-04T02:44:49.893Z,80.70
2018-05-04T02:47:21.261Z,79.22
2018-05-04T02:49:52.402Z,76.15
2018-05-04T02:52:23.453Z,76.53
2018-05-04T02:54:55.113Z,83.07
2018-05-04T02:57:26.333Z,81.80
2018-05-04T02:59:57.413Z,82.40
2018-05-04T03:02:28.665Z,79.05
2018-05-04T03:04:59.907Z,81.80
2018-05-04T03:07:31.068Z,83.20
2018-05-04T03:10:02.130Z,90.07
2018-05-04T03:12:34.208Z,86.65
2018-05-04T03:15:06.383Z,84.28
2018-05-04T03:17:37.576Z,83.50
2018-05-04T03:20:08.425Z,82.95
2018-05-04T03:22:39.108Z,80.57
2018-05-04T03:25:12.817Z,93.47
2018-05-04T03:27:43.597Z,78.53
2018-05-04T03:30:14.341Z,77.78
2018-05-04T03:32:45.219Z,74.60
2018-05-04T03:35:15.875Z,81.87
2018-05-04T03:37:46.676Z,72.78
2018-05-04T03:40:17.403Z,73.20
2018-05-04T03:42:48.289Z,72.45
2018-05-04T03:45:19.180Z,76.18
2018-05-04T03:47:49.823Z,74.87
2018-05-04T03:50:20.484Z,79.60
2018-05-04T03:52:51.291Z,76.03
2018-05-04T03:55:22.118Z,76.55
2018-05-04T03:59:06.849Z,72.40
2018-05-04T04:02:45.893Z,73.05
2018-05-04T04:05:16.646Z,69.60
2018-05-04T04:07:47.463Z,74.55
2018-05-04T04:10:18.348Z,76.43
2018-05-04T04:12:48.995Z,72.97
2018-05-04T04:15:19.730Z,76.87
2018-05-04T04:17:50.430Z,76.97
2018-05-04T04:20:21.324Z,78.43
2018-05-04T04:22:52.477Z,80.55
2018-05-04T04:25:23.214Z,75.68
2018-05-04T04:27:53.875Z,77.53
2018-05-04T04:30:24.683Z,77.72
2018-05-04T04:32:55.432Z,74.25
2018-05-04T04:35:27.569Z,72.75
2018-05-04T04:37:58.179Z,80.18
2018-05-04T04:40:28.797Z,81.20
2018-05-04T04:42:59.483Z,74.90
2018-05-04T04:45:30.443Z,76.80
2018-05-04T04:48:01.216Z,80.18
2018-05-04T04:50:32.045Z,78.97
2018-05-04T04:53:03.007Z,76.80
2018-05-04T04:55:33.738Z,72.65
2018-05-04T04:58:04.575Z,75.43
2018-05-04T05:00:35.418Z,78.53
2018-05-04T05:03:06.212Z,75.07
2018-05-04T05:05:40.215Z,74.57
2018-05-04T05:08:11.421Z,76.80
2018-05-04T05:10:42.241Z,75.45
2018-05-04T05:13:12.783Z,71.18
2018-05-04T05:15:43.782Z,78.57
2018-05-04T05:18:14.351Z,70.95
2018-05-04T05:20:44.999Z,75.43
2018-05-04T05:23:15.576Z,79.40
2018-05-04T05:25:46.411Z,73.07
2018-05-04T05:28:17.092Z,73.43
2018-05-04T05:30:47.823Z,75.57
2018-05-04T05:33:18.844Z,74.70
2018-05-04T05:35:49.873Z,76.90
2018-05-04T05:38:20.427Z,77.18
2018-05-04T05:40:51.282Z,77.60
2018-05-04T05:43:22.032Z,70.68
2018-05-04T05:45:52.763Z,74.32
2018-05-04T05:48:24.087Z,75.10
2018-05-04T05:50:54.785Z,77.03
2018-05-04T05:53:25.391Z,77.97
2018-05-04T05:55:56.013Z,77.45
2018-05-04T05:58:26.632Z,84.57
2018-05-04T06:00:57.298Z,85.18
2018-05-04T06:03:27.922Z,83.03
2018-05-04T06:05:58.615Z,82.60
2018-05-04T06:08:29.460Z,81.60
2018-05-04T06:11:00.117Z,77.05
2018-05-04T06:13:31.727Z,81.28
2018-05-04T06:16:02.404Z,80.75
2018-05-04T06:18:33.958Z,81.93
2018-05-04T06:21:04.590Z,83.30
2018-05-04T06:23:35.182Z,82.90
2018-05-04T06:26:05.960Z,75.15
2018-05-04T06:28:36.528Z,74.43
2018-05-04T06:31:07.237Z,78.57
2018-05-04T06:33:37.815Z,77.93
2018-05-04T06:36:08.568Z,75.57
2018-05-04T06:38:39.336Z,83.55
2018-05-04T06:41:09.922Z,74.85
2018-05-04T06:43:40.528Z,78.18
2018-05-04T06:46:11.617Z,79.70
2018-05-04T06:48:42.306Z,77.30
2018-05-04T06:51:13.255Z,79.90
2018-05-04T06:53:44.000Z,78.12
2018-05-04T06:56:14.681Z,83.93
2018-05-04T06:58:45.379Z,76.45
2018-05-04T07:01:16.067Z,73.22
2018-05-04T07:03:46.902Z,70.80
2018-05-04T07:06:17.564Z,74.57
2018-05-04T07:08:48.557Z,74.47
2018-05-04T07:11:19.116Z,75.18
2018-05-04T07:13:49.924Z,72.87
2018-05-04T07:16:20.443Z,77.57
2018-05-04T07:18:51.098Z,77.30
2018-05-04T07:21:21.835Z,75.97
2018-05-04T07:23:52.723Z,74.20
2018-05-04T07:26:23.532Z,72.05
2018-05-04T07:28:54.212Z,75.87
2018-05-04T07:31:25.195Z,78.75
2018-05-04T07:33:56.066Z,70.65
2018-05-04T07:36:26.819Z,81.05
2018-05-04T07:38:57.523Z,80.72
2018-05-04T07:41:28.205Z,79.32
2018-05-04T07:43:59.075Z,79.03
2018-05-04T07:46:29.677Z,78.57
2018-05-04T07:49:00.688Z,76.93
2018-05-04T07:51:31.779Z,80.45
2018-05-04T07:54:02.388Z,80.95
2018-05-04T07:56:38.141Z,79.15
2018-05-04T07:59:10.375Z,77.70
2018-05-04T08:01:42.353Z,78.28
2018-05-04T08:04:13.007Z,81.15
2018-05-04T08:06:43.944Z,78.18
2018-05-04T08:09:14.517Z,75.85
2018-05-04T08:11:45.572Z,79.55
2018-05-04T08:14:16.345Z,80.65
2018-05-04T08:16:47.876Z,76.30
2018-05-04T08:19:19.273Z,82.70
2018-05-04T08:21:50.033Z,80.45
2018-05-04T08:24:20.617Z,84.47
2018-05-04T08:26:51.528Z,82.03
2018-05-04T08:29:22.194Z,77.12
2018-05-04T08:31:52.849Z,77.00
2018-05-04T08:34:23.557Z,77.10
2018-05-04T08:36:54.551Z,81.25
2018-05-04T08:39:25.204Z,83.93
2018-05-04T08:41:55.888Z,80.62
2018-05-04T08:44:26.717Z,81.22
2018-05-04T08:46:57.899Z,78.85
2018-05-04T08:49:28.478Z,87.65
2018-05-04T08:51:59.287Z,87.45
2018-05-04T08:54:29.884Z,84.93
2018-05-04T08:57:00.682Z,76.80
2018-05-04T08:59:31.384Z,84.53
2018-05-04T09:02:02.193Z,86.47
2018-05-04T09:04:32.931Z,85.82
2018-05-04T09:07:03.765Z,80.55
2018-05-04T09:09:34.368Z,75.87
2018-05-04T09:12:05.585Z,88.18
2018-05-04T09:14:36.416Z,88.25
2018-05-04T09:17:07.647Z,72.87
2018-05-04T09:19:39.058Z,93.28
2018-05-04T09:22:11.228Z,78.75
2018-05-04T09:24:42.635Z,80.25
2018-05-04T09:27:14.601Z,80.85
2018-05-04T09:29:45.887Z,84.50
2018-05-04T09:32:17.133Z,80.30
2018-05-04T09:34:48.535Z,85.62
2018-05-04T09:37:19.714Z,81.68
2018-05-04T09:39:50.784Z,76.62
2018-05-04T09:42:22.359Z,71.50
2018-05-04T09:44:53.535Z,82.75
2018-05-04T09:47:25.361Z,76.10
2018-05-04T09:49:56.786Z,82.90
2018-05-04T09:52:28.020Z,83.20
2018-05-04T09:54:59.444Z,75.82
2018-05-04T09:57:32.829Z,75.03
2018-05-04T10:00:04.520Z,83.28
2018-05-04T10:02:36.217Z,83.07
2018-05-04T10:05:06.953Z,91.87
2018-05-04T10:07:37.622Z,79.80
2018-05-04T10:10:08.446Z,77.35
2018-05-04T10:12:39.240Z,79.57
2018-05-04T10:15:09.887Z,84.13
2018-05-04T10:17:40.716Z,81.50
2018-05-04T10:20:11.648Z,80.65
2018-05-04T10:22:43.984Z,70.80
2018-05-04T10:25:14.642Z,77.60
2018-05-04T10:27:45.305Z,75.70
2018-05-04T10:30:16.209Z,73.80
2018-05-04T10:32:46.993Z,82.90
2018-05-04T10:35:17.568Z,79.65
2018-05-04T10:37:48.604Z,72.95
2018-05-04T10:40:19.391Z,79.07
2018-05-04T10:42:50.587Z,83.82
2018-05-04T10:45:21.273Z,81.55
2018-05-04T10:47:51.966Z,86.60
2018-05-04T10:50:22.640Z,83.30
2018-05-04T10:52:53.463Z,82.62
2018-05-04T10:55:24.415Z,81.25
2018-05-04T10:57:57.043Z,91.37
2018-05-04T11:00:28.190Z,85.85
2018-05-04T11:02:58.930Z,87.93
2018-05-04T11:05:29.873Z,76.25
2018-05-04T11:08:00.667Z,87.25
2018-05-04T11:10:31.405Z,85.12
2018-05-04T11:13:02.874Z,81.07
2018-05-04T11:15:33.673Z,72.80
2018-05-04T11:18:04.975Z,77.65
2018-05-04T11:20:35.580Z,75.25
2018-05-04T11:23:06.264Z,75.60
2018-05-04T11:25:36.787Z,69.35
2018-05-04T11:28:07.781Z,76.72
2018-05-04T11:30:38.968Z,80.85
2018-05-04T11:33:09.568Z,78.82
2018-05-04T11:35:41.800Z,75.87
2018-05-04T11:38:13.364Z,72.22
2018-05-04T11:40:44.376Z,77.03
2018-05-04T11:43:15.356Z,80.20
2018-05-04T11:45:46.208Z,82.85
2018-05-04T11:48:17.012Z,83.22
2018-05-04T11:50:47.639Z,86.00
2018-05-04T11:53:18.298Z,82.20
2018-05-04T11:55:49.128Z,80.93
2018-05-04T11:58:19.633Z,77.45
2018-05-04T12:00:50.318Z,82.35
2018-05-04T12:03:20.980Z,78.78
2018-05-04T12:05:51.677Z,81.12
2018-05-04T12:08:22.792Z,80.85
2018-05-04T12:10:53.501Z,82.88
2018-05-04T12:13:24.400Z,87.82
2018-05-04T12:15:55.135Z,86.65
2018-05-04T12:18:25.968Z,84.22
2018-05-04T12:20:56.856Z,84.62
2018-05-04T12:23:27.588Z,87.62
2018-05-04T12:25:58.469Z,84.45
2018-05-04T12:28:29.236Z,81.82
2018-05-04T12:31:00.050Z,87.30
2018-05-04T12:33:30.840Z,85.32
2018-05-04T12:36:01.805Z,92.60
2018-05-04T12:38:32.789Z,86.63
2018-05-04T12:41:03.785Z,95.53
2018-05-04T12:43:39.520Z,84.03
2018-05-04T12:48:52.539Z,88.15
2018-05-04T12:51:23.326Z,87.40
2018-05-04T12:53:55.711Z,83.55
2018-05-04T12:56:26.464Z,82.22
2018-05-04T12:58:57.679Z,85.55
2018-05-04T13:01:28.709Z,70.72
2018-05-04T13:03:59.433Z,78.93
2018-05-04T13:06:30.342Z,79.87
2018-05-04T13:09:02.095Z,91.85
2018-05-04T13:11:32.830Z,83.25
2018-05-04T13:14:03.759Z,84.35
2018-05-04T13:16:34.503Z,79.55
2018-05-04T13:19:05.235Z,86.20
2018-05-04T13:21:36.075Z,73.72
2018-05-04T13:24:06.689Z,78.80
2018-05-04T13:26:37.485Z,78.85
2018-05-04T13:29:08.321Z,76.60
2018-05-04T13:31:39.435Z,76.37
2018-05-04T13:34:09.996Z,76.40
2018-05-04T13:36:40.884Z,82.50
2018-05-04T13:39:11.896Z,79.97
2018-05-04T13:41:42.602Z,82.88
2018-05-04T13:44:13.417Z,81.60
2018-05-04T13:46:44.049Z,86.63
2018-05-04T13:49:14.684Z,87.47
2018-05-04T13:51:45.484Z,89.18
2018-05-04T13:54:16.260Z,85.75
2018-05-04T13:56:47.048Z,85.30
2018-05-04T13:59:17.813Z,84.87
2018-05-04T14:01:48.651Z,91.63
2018-05-04T14:04:19.401Z,84.10
2018-05-04T14:06:50.120Z,84.13
2018-05-04T14:09:23.233Z,85.80
2018-05-04T14:11:54.060Z,84.47
2018-05-04T14:14:24.869Z,87.28
2018-05-04T14:16:55.699Z,89.15
2018-05-04T14:19:26.404Z,86.55
2018-05-04T14:21:57.188Z,89.25
2018-05-04T14:24:28.200Z,91.07
2018-05-04T14:26:58.976Z,90.57
2018-05-04T14:29:29.711Z,84.93
2018-05-04T14:32:00.420Z,95.85
2018-05-04T14:34:31.564Z,91.12
2018-05-04T14:37:02.804Z,92.53
2018-05-04T14:39:33.746Z,84.78
2018-05-04T14:42:04.530Z,90.93
2018-05-04T14:44:35.364Z,93.90
2018-05-04T14:47:06.152Z,94.10
2018-05-04T14:49:37.094Z,90.40
2018-05-04T14:52:08.104Z,94.72
2018-05-04T14:54:39.014Z,89.03
2018-05-04T14:57:09.641Z,89.28
2018-05-04T14:59:40.286Z,85.87
2018-05-04T15:02:11.124Z,89.10
2018-05-04T15:04:42.054Z,87.05
2018-05-04T15:07:12.725Z,87.40
2018-05-04T15:09:43.789Z,93.93
2018-05-04T15:12:14.491Z,93.12
2018-05-04T15:14:47.420Z,84.53
2018-05-04T15:17:18.390Z,93.07
2018-05-04T15:19:49.168Z,91.55
2018-05-04T15:22:19.777Z,89.25
2018-05-04T15:24:50.606Z,93.18
2018-05-04T15:27:21.303Z,98.50
2018-05-04T15:29:52.063Z,93.45
2018-05-04T15:32:25.424Z,89.90
2018-05-04T15:34:56.442Z,90.55
2018-05-04T15:37:27.152Z,88.53
2018-05-04T15:39:59.188Z,95.28
2018-05-04T15:42:29.928Z,88.90
2018-05-04T15:45:01.496Z,90.90
2018-05-04T15:47:33.602Z,91.68
2018-05-04T15:50:08.632Z,90.05
2018-05-04T15:52:39.557Z,91.63
2018-05-04T15:55:12.768Z,95.95
2018-05-04T15:57:43.676Z,88.70
2018-05-04T16:00:14.368Z,91.40
2018-05-04T16:02:45.263Z,96.18
2018-05-04T16:05:15.992Z,86.10
2018-05-04T16:07:46.732Z,89.10
2018-05-04T16:10:17.390Z,88.15
2018-05-04T16:12:48.020Z,89.37
2018-05-04T16:15:18.817Z,88.43
2018-05-04T16:17:49.613Z,85.22
2018-05-04T16:20:20.307Z,93.70
2018-05-04T16:22:51.063Z,93.65
2018-05-04T16:25:21.817Z,91.30
2018-05-04T16:27:52.588Z,85.97
2018-05-04T16:30:23.307Z,84.05
2018-05-04T16:32:54.501Z,91.25
2018-05-04T16:35:25.094Z,86.63
2018-05-04T16:37:55.952Z,83.70
2018-05-04T16:40:30.821Z,87.32
2018-05-04T16:43:01.715Z,91.43
2018-05-04T16:45:32.492Z,86.60
2018-05-04T16:48:07.468Z,88.25
2018-05-04T16:50:40.820Z,89.70
2018-05-04T16:53:12.361Z,89.95
2018-05-04T16:55:43.474Z,83.87
2018-05-04T16:58:14.881Z,87.50
2018-05-04T17:00:46.192Z,84.55
2018-05-04T17:03:17.546Z,91.82
2018-05-04T17:05:48.847Z,98.53
2018-05-04T17:08:20.102Z,93.15
2018-05-04T17:10:51.176Z,92.43
2018-05-04T17:13:22.412Z,88.43
2018-05-04T17:15:53.570Z,89.00
2018-05-04T17:18:24.951Z,88.32
2018-05-04T17:20:56.055Z,83.43
2018-05-04T17:23:27.162Z,92.53
2018-05-04T17:25:59.072Z,83.50
2018-05-04T17:28:32.091Z,82.15
2018-05-04T17:31:04.097Z,85.50
2018-05-04T17:33:35.303Z,93.80
2018-05-04T17:36:07.496Z,89.20
2018-05-04T17:38:45.409Z,87.90
2018-05-04T17:41:18.332Z,88.80
2018-05-04T17:43:50.391Z,97.12
2018-05-04T17:46:21.547Z,96.72
2018-05-04T17:48:53.198Z,98.00
2018-05-04T17:51:24.822Z,97.75
2018-05-04T17:53:56.081Z,93.87
2018-05-04T17:56:28.464Z,100.32
2018-05-04T17:59:00.625Z,98.37
2018-05-04T18:01:31.826Z,101.85
2018-05-04T18:04:03.635Z,89.72
2018-05-04T18:06:35.181Z,88.00
2018-05-04T18:09:06.492Z,103.10
2018-05-04T18:11:37.777Z,107.18
2018-05-04T18:14:09.956Z,94.80
2018-05-04T18:16:41.266Z,92.22
2018-05-04T18:19:12.594Z,96.20
2018-05-04T18:21:44.221Z,103.43
2018-05-04T18:24:15.566Z,89.50
2018-05-04T18:26:46.587Z,88.70
2018-05-04T18:29:17.783Z,89.07
2018-05-04T18:31:48.904Z,94.35
2018-05-04T18:34:19.520Z,92.30
2018-05-04T18:36:50.717Z,91.63
2018-05-04T18:39:21.794Z,83.85
2018-05-04T18:41:52.588Z,83.45
2018-05-04T18:44:23.693Z,85.90
2018-05-04T18:46:57.450Z,87.30
2018-05-04T18:49:28.199Z,85.07
2018-05-04T18:51:59.080Z,82.10
2018-05-04T18:54:29.983Z,83.20
2018-05-04T18:57:01.058Z,86.90
2018-05-04T18:59:31.963Z,82.57
2018-05-04T19:02:02.878Z,77.43
2018-05-04T19:04:33.705Z,82.60
2018-05-04T19:07:04.359Z,79.00
2018-05-04T19:09:35.120Z,84.50
2018-05-04T19:12:05.952Z,84.82
2018-05-04T19:14:36.686Z,88.30
2018-05-04T19:17:07.483Z,91.75
2018-05-04T19:19:38.155Z,85.53
2018-05-04T19:22:13.896Z,85.18
2018-05-04T19:24:44.787Z,84.75
2018-05-04T19:27:20.578Z,85.20
2018-05-04T19:29:51.443Z,88.20
2018-05-04T19:32:22.196Z,80.20
2018-05-04T19:34:52.888Z,86.00
2018-05-04T19:37:24.179Z,92.65
2018-05-04T19:39:58.826Z,89.97
2018-05-04T19:42:30.211Z,84.65
2018-05-04T19:45:01.115Z,88.95
2018-05-04T19:47:33.635Z,90.45
2018-05-04T19:50:04.701Z,88.87
2018-05-04T19:52:35.694Z,86.20
2018-05-04T19:55:06.455Z,86.63
2018-05-04T19:57:37.233Z,83.22
2018-05-04T20:00:08.430Z,82.20
2018-05-04T20:02:40.480Z,83.50
2018-05-04T20:05:14.837Z,90.12
2018-05-04T20:07:45.645Z,79.68
2018-05-04T20:10:16.523Z,81.53
2018-05-04T20:12:47.488Z,88.53
2018-05-04T20:15:18.251Z,87.62
2018-05-04T20:17:49.308Z,89.47
2018-05-04T20:20:20.200Z,84.47
2018-05-04T20:22:51.306Z,82.97
2018-05-04T20:25:21.932Z,90.25
2018-05-04T20:27:53.164Z,85.78
2018-05-04T20:30:23.764Z,87.70
2018-05-04T20:32:54.533Z,84.70
2018-05-04T20:35:26.080Z,75.25
2018-05-04T20:37:56.995Z,81.97
2018-05-04T20:40:27.807Z,84.25
2018-05-04T20:46:02.224Z,83.55
2018-05-04T20:51:45.904Z,80.10
2018-05-04T20:54:16.495Z,83.20
2018-05-04T20:56:47.207Z,87.45
2018-05-04T20:59:17.925Z,87.25
2018-05-04T21:01:48.636Z,90.55
2018-05-04T21:24:32.850Z,81.32
2018-05-04T21:27:03.455Z,77.45
2018-05-04T21:29:34.262Z,81.05
2018-05-04T21:32:04.973Z,81.37
2018-05-04T21:37:39.271Z,81.57
2018-05-04T21:40:10.255Z,82.97
2018-05-04T21:42:43.521Z,78.97
2018-05-04T21:45:14.303Z,79.32
2018-05-04T21:47:45.085Z,82.78
2018-05-04T21:50:15.792Z,84.80
2018-05-04T21:52:46.547Z,86.10
2018-05-04T21:55:17.180Z,100.78
2018-05-04T21:57:47.748Z,81.90
2018-05-04T22:00:18.519Z,77.07
2018-05-04T22:02:49.513Z,74.18
2018-05-04T22:05:20.048Z,77.03
2018-05-04T22:07:51.102Z,76.70
2018-05-04T22:10:21.829Z,71.70
2018-05-04T22:12:52.456Z,77.82
2018-05-04T22:15:23.105Z,71.70
2018-05-04T22:17:54.098Z,76.68
2018-05-04T22:20:24.667Z,69.40
2018-05-04T22:22:55.334Z,73.62
2018-05-04T22:25:25.959Z,74.22
2018-05-04T22:27:56.956Z,72.78
2018-05-04T22:30:27.683Z,72.53
2018-05-04T22:32:58.319Z,71.32
2018-05-04T22:35:28.832Z,72.37
2018-05-04T22:38:00.018Z,72.15
2018-05-04T22:40:31.034Z,78.50
2018-05-04T22:43:02.680Z,73.85
2018-05-04T22:45:33.452Z,80.22
2018-05-04T22:48:04.215Z,77.95
2018-05-04T22:57:09.604Z,82.40
2018-05-04T22:59:40.330Z,78.95
2018-05-04T23:02:10.969Z,78.03
2018-05-04T23:04:41.597Z,80.18
2018-05-04T23:07:12.344Z,72.95
2018-05-04T23:09:42.905Z,80.35
2018-05-04T23:12:13.585Z,81.55
2018-05-04T23:14:44.250Z,79.10
2018-05-04T23:17:15.125Z,73.10
2018-05-04T23:19:45.831Z,75.22
2018-05-04T23:22:25.907Z,80.07
2018-05-04T23:24:56.643Z,82.55
2018-05-04T23:27:27.336Z,79.45
2018-05-04T23:29:57.949Z,82.40
2018-05-04T23:32:28.728Z,76.85
2018-05-04T23:34:59.261Z,75.43
2018-05-04T23:37:30.200Z,74.28
2018-05-04T23:40:00.858Z,77.53
2018-05-04T23:42:31.503Z,75.57
2018-05-04T23:45:02.091Z,75.75
2018-05-04T23:47:32.869Z,77.20
2018-05-04T23:50:03.977Z,75.80
2018-05-04T23:52:35.144Z,73.18
2018-05-04T23:55:05.891Z,76.68
2018-05-04T23:57:36.718Z,74.35
